Time;durP1;ratioP1;P1;durP2;ratioP2;P2;SDS_P1;SDS_P2;PMS_P1;PMS_P2;Temp;Humidity;BMP_temperature;BMP_pressure;BME280_temperature;BME280_humidity;BME280_pressure;Samples;Min_cycle;Max_cycle;Signal;HPM_P1;HPM_P2
2022/01/20 00:01:44;;;;;;;25.95;4.40;;;;;;;4.04;81.16;102278.88;3579963;40;20377;-65
2022/01/20 00:04:15;;;;;;;32.88;4.18;;;;;;;3.92;81.33;102258.59;3582514;40;20060;-65
2022/01/20 00:20:28;;;;;;;26.45;4.03;;;;;;;3.94;81.32;102267.44;3580271;40;20052;-65
2022/01/20 00:23:29;;;;;;;29.15;4.30;;;;;;;3.77;81.68;102280.03;3580642;40;20049;-65
2022/01/20 00:26:01;;;;;;;25.10;3.90;;;;;;;3.69;81.95;102268.59;3581560;40;20391;-65
2022/01/20 00:28:39;;;;;;;21.48;4.15;;;;;;;3.81;81.90;102292.44;3581853;40;20117;-65
2022/01/20 00:34:10;;;;;;;28.58;4.90;;;;;;;3.70;81.43;102283.66;3579898;40;20145;-65
2022/01/20 00:39:22;;;;;;;29.70;4.97;;;;;;;3.67;82.40;102283.69;3580632;40;20402;-64
2022/01/20 00:41:47;;;;;;;25.33;4.45;;;;;;;3.63;82.24;102276.66;3583543;40;20072;-64
2022/01/20 00:44:13;;;;;;;27.92;4.05;;;;;;;3.68;82.42;102294.31;3584846;40;20123;-64
2022/01/20 00:46:38;;;;;;;32.60;4.57;;;;;;;3.69;82.43;102298.75;3582890;40;20068;-65
2022/01/20 00:49:04;;;;;;;25.60;4.22;;;;;;;3.47;81.96;102242.22;3584742;40;20124;-64
2022/01/20 00:51:30;;;;;;;21.15;4.38;;;;;;;3.66;82.24;102281.94;3583057;40;20052;-65
2022/01/20 00:53:56;;;;;;;24.67;4.20;;;;;;;3.69;82.03;102287.22;3585194;40;20048;-64
2022/01/20 00:56:22;;;;;;;22.45;3.95;;;;;;;3.67;82.04;102278.38;3587086;40;20048;-64
2022/01/20 00:58:47;;;;;;;21.80;4.05;;;;;;;3.63;82.27;102266.00;3584321;40;20075;-64
2022/01/20 01:01:14;;;;;;;31.02;4.50;;;;;;;3.74;82.36;102290.69;3582205;40;20273;-64
2022/01/20 01:03:39;;;;;;;19.05;3.97;;;;;;;3.81;82.51;102297.75;3584929;40;20060;-63
2022/01/20 01:06:21;;;;;;;29.90;4.97;;;;;;;3.89;82.88;102306.50;3582861;40;20048;-63
2022/01/20 01:08:47;;;;;;;28.95;4.85;;;;;;;3.89;82.42;102290.53;3586342;40;20389;-65
2022/01/20 01:11:12;;;;;;;27.30;4.35;;;;;;;3.98;82.07;102302.00;3577152;40;20058;-62
2022/01/20 01:13:38;;;;;;;18.48;3.30;;;;;;;4.06;82.22;102302.78;3581129;40;20092;-64
2022/01/20 01:16:07;;;;;;;17.52;3.22;;;;;;;4.08;82.29;102291.22;3583725;40;20052;-63
2022/01/20 01:21:41;;;;;;;;;;;;;;;4.32;81.14;102326.47;3580107;40;20075;-64
2022/01/20 01:24:07;;;;;;;21.85;3.28;;;;;;;4.27;80.83;102305.19;3579192;40;19986;-64
2022/01/20 01:26:32;;;;;;;17.80;3.08;;;;;;;4.28;80.43;102304.31;3579147;40;20099;-64
2022/01/20 01:28:59;;;;;;;17.70;2.88;;;;;;;4.31;80.94;102309.59;3580063;40;20387;-64
2022/01/20 01:31:38;;;;;;;19.90;3.55;;;;;;;4.32;80.80;102306.03;3576449;40;20080;-64
2022/01/20 01:34:13;;;;;;;24.77;3.42;;;;;;;4.32;81.18;102311.38;3581573;40;20323;-64
2022/01/20 01:39:12;;;;;;;20.40;3.13;;;;;;;4.14;80.95;102290.28;3580481;40;20052;-65
2022/01/20 01:41:38;;;;;;;17.13;3.10;;;;;;;4.24;80.89;102313.22;3579496;40;20056;-65
2022/01/20 01:44:08;;;;;;;22.92;3.00;;;;;;;4.15;81.17;102298.28;3581562;40;20124;-67
2022/01/20 01:46:35;;;;;;;17.13;2.83;;;;;;;4.18;80.81;102308.84;3577275;40;20334;-64
2022/01/20 01:49:02;;;;;;;19.13;3.40;;;;;;;4.01;81.13;102283.34;3583027;40;20590;-64
2022/01/20 01:51:27;;;;;;;20.67;3.42;;;;;;;4.17;81.39;102306.22;3577696;40;20056;-64
2022/01/20 01:53:53;;;;;;;18.90;3.20;;;;;;;4.18;81.45;102310.63;3576560;40;20059;-63
2022/01/20 01:56:20;;;;;;;23.98;3.90;;;;;;;4.23;81.91;102322.13;3581072;40;20303;-64
2022/01/20 01:58:46;;;;;;;17.30;2.88;;;;;;;4.28;81.40;102320.28;3580938;40;20061;-63
2022/01/20 02:01:11;;;;;;;19.85;2.65;;;;;;;4.21;81.53;102315.91;3582416;40;20078;-64
2022/01/20 02:03:46;;;;;;;20.80;3.15;;;;;;;4.18;81.65;102303.53;3578207;40;20090;-64
2022/01/20 02:09:10;;;;;;;16.92;2.75;;;;;;;4.22;80.92;102304.41;3582753;40;21427;-64
2022/01/20 02:19:54;;;;;;;18.75;2.90;;;;;;;4.30;81.83;102315.81;3576160;40;20116;-64
2022/01/20 02:22:20;;;;;;;15.68;2.58;;;;;;;4.34;82.03;102327.31;3579187;40;20079;-64
2022/01/20 02:24:46;;;;;;;12.77;2.53;;;;;;;4.47;81.93;102336.03;3578989;40;20844;-64
2022/01/20 02:27:11;;;;;;;13.65;2.75;;;;;;;4.51;81.47;102337.78;3581976;40;20056;-64
2022/01/20 02:29:38;;;;;;;13.43;2.58;;;;;;;4.61;81.45;102336.75;3580536;40;20056;-64
2022/01/20 02:32:04;;;;;;;16.42;2.42;;;;;;;4.71;81.71;102335.72;3577335;40;20392;-64
2022/01/20 02:34:31;;;;;;;16.58;2.22;;;;;;;4.67;81.42;102310.03;3579775;40;20268;-62
2022/01/20 02:37:02;;;;;;;10.80;2.05;;;;;;;4.82;80.83;102324.91;3584216;40;20055;-63
2022/01/20 02:44:54;;;;;;;13.18;1.35;;;;;;;4.87;80.57;102304.41;3580643;40;20088;-64
2022/01/20 02:47:24;;;;;;;7.55;1.80;;;;;;;4.92;80.51;102313.25;3580484;40;20113;-64
2022/01/20 02:49:50;;;;;;;13.10;2.13;;;;;;;4.81;80.47;102293.84;3578031;40;20360;-64
2022/01/20 02:52:17;;;;;;;11.80;2.17;;;;;;;4.74;80.54;102290.41;3581943;40;20052;-63
2022/01/20 02:54:43;;;;;;;15.70;2.15;;;;;;;4.85;80.77;102317.78;3576443;40;20456;-62
2022/01/20 02:57:09;;;;;;;10.70;2.33;;;;;;;4.95;81.23;102313.19;3579059;40;20056;-62
2022/01/20 02:59:35;;;;;;;12.23;2.40;;;;;;;4.97;80.77;102310.50;3579424;40;20058;-62
2022/01/20 03:02:03;;;;;;;18.35;2.67;;;;;;;4.79;80.45;102291.22;3579339;40;20064;-62
2022/01/20 03:04:30;;;;;;;16.67;2.22;;;;;;;4.80;80.93;102290.31;3612854;22;20068;-64
2022/01/20 03:06:57;;;;;;;14.35;2.35;;;;;;;4.82;80.97;102298.25;3566834;40;20417;-64
2022/01/20 03:09:22;;;;;;;17.67;2.97;;;;;;;4.75;81.14;102292.16;3569976;40;20056;-64
2022/01/20 03:11:49;;;;;;;14.85;2.40;;;;;;;4.53;81.24;102277.38;3565407;40;20103;-63
2022/01/20 03:14:17;;;;;;;16.65;3.05;;;;;;;4.67;81.02;102290.53;3570252;40;20059;-62
2022/01/20 03:16:45;;;;;;;15.25;2.83;;;;;;;4.58;81.20;102307.50;3577231;40;20052;-64
2022/01/20 03:19:12;;;;;;;11.38;2.65;;;;;;;4.55;81.02;102307.53;3575126;40;20122;-64
2022/01/20 03:21:39;;;;;;;18.10;2.95;;;;;;;4.50;80.87;102296.06;3574595;40;20080;-63
2022/01/20 03:24:07;;;;;;;12.50;2.97;;;;;;;4.43;81.31;102290.81;3574774;40;20122;-63
2022/01/20 03:26:33;;;;;;;17.33;2.72;;;;;;;4.37;81.16;102282.00;3575855;40;20052;-63
2022/01/20 03:28:59;;;;;;;16.17;2.58;;;;;;;4.07;81.34;102235.38;3572828;40;20055;-63
2022/01/20 03:31:27;;;;;;;14.13;2.78;;;;;;;4.25;81.46;102288.41;3577815;40;20068;-64
2022/01/20 03:33:53;;;;;;;18.00;2.67;;;;;;;4.20;81.52;102287.56;3577832;40;20407;-64
2022/01/20 03:36:19;;;;;;;12.63;2.67;;;;;;;4.15;81.79;102294.69;3577825;40;20083;-64
2022/01/20 03:38:46;;;;;;;12.68;1.95;;;;;;;4.09;81.99;102293.00;3579011;40;20121;-64
2022/01/20 03:41:11;;;;;;;22.13;2.58;;;;;;;4.07;81.45;102285.94;3574743;40;20069;-64
2022/01/20 03:43:37;;;;;;;24.90;3.70;;;;;;;4.04;82.16;102281.53;3579625;40;20060;-63
2022/01/20 03:46:09;;;;;;;18.85;2.97;;;;;;;3.99;81.95;102287.78;3578957;40;20063;-64
2022/01/20 03:48:38;;;;;;;15.35;2.88;;;;;;;4.00;82.16;102287.78;3580151;40;20044;-64
2022/01/20 03:51:04;;;;;;;21.42;3.00;;;;;;;4.01;82.31;102291.31;3575596;40;20053;-64
2022/01/20 03:53:38;;;;;;;13.95;2.38;;;;;;;4.02;82.11;102278.00;3579725;40;20064;-63
2022/01/20 03:56:06;;;;;;;18.35;2.63;;;;;;;4.04;82.56;102283.31;3581017;40;20066;-64
2022/01/20 03:58:31;;;;;;;18.45;2.53;;;;;;;3.85;82.26;102254.25;3576458;40;20056;-64
2022/01/20 04:00:57;;;;;;;15.70;1.92;;;;;;;4.03;81.50;102286.84;3579078;40;20056;-64
2022/01/20 04:03:24;;;;;;;11.40;2.47;;;;;;;4.02;81.62;102279.78;3580678;40;20056;-63
2022/01/20 04:05:56;;;;;;;20.05;2.67;;;;;;;4.01;81.47;102291.31;3579535;40;20068;-64
2022/01/20 04:08:35;;;;;;;21.48;2.88;;;;;;;4.01;81.42;102289.53;3580732;40;20117;-63
2022/01/20 04:11:09;;;;;;;11.45;2.30;;;;;;;3.97;80.99;102286.94;3579087;40;20326;-64
2022/01/20 04:13:35;;;;;;;17.00;2.90;;;;;;;3.95;81.11;102290.47;3578095;40;20063;-64
2022/01/20 04:16:13;;;;;;;11.63;2.47;;;;;;;4.03;81.48;102302.81;3580554;40;20055;-63
2022/01/20 04:18:51;;;;;;;19.88;3.13;;;;;;;4.05;81.48;102303.69;3581665;40;20044;-63
2022/01/20 04:21:17;;;;;;;14.07;2.42;;;;;;;4.08;81.46;102301.00;3579941;40;20068;-63
2022/01/20 04:23:42;;;;;;;19.42;2.75;;;;;;;4.11;81.26;102307.16;3579936;40;20059;-64
2022/01/20 04:26:08;;;;;;;14.32;2.75;;;;;;;4.15;80.94;102292.94;3577025;40;20434;-63
2022/01/20 04:28:34;;;;;;;20.27;3.20;;;;;;;4.25;80.86;102311.44;3576075;40;20131;-63
2022/01/20 04:30:59;;;;;;;19.13;2.47;;;;;;;4.28;81.02;102317.63;3576209;40;20364;-63
2022/01/20 04:33:25;;;;;;;13.63;2.63;;;;;;;4.36;80.85;102313.09;3576685;40;20045;-63
2022/01/20 04:35:50;;;;;;;15.32;2.78;;;;;;;4.40;80.28;102312.13;3578164;40;20045;-64
2022/01/20 04:38:16;;;;;;;18.65;2.60;;;;;;;4.47;80.65;102325.38;3576275;40;20299;-63
2022/01/20 04:40:43;;;;;;;18.20;2.70;;;;;;;4.47;80.08;102326.25;3577539;40;20055;-63
2022/01/20 04:43:08;;;;;;;14.25;3.17;;;;;;;4.52;80.90;102335.06;3581187;40;20044;-64
2022/01/20 04:45:41;;;;;;;17.15;2.33;;;;;;;4.52;80.94;102334.19;3580203;40;20075;-63
2022/01/20 04:48:25;;;;;;;13.55;2.50;;;;;;;4.55;80.34;102323.50;3581240;40;20036;-64
2022/01/20 04:59:04;;;;;;;15.27;2.80;;;;;;;4.46;80.01;102312.97;3579715;40;19975;-64
2022/01/20 05:01:30;;;;;;;11.40;2.85;;;;;;;4.61;80.07;102344.75;3577698;40;20052;-64
2022/01/20 05:03:57;;;;;;;15.52;3.05;;;;;;;4.62;79.73;102346.50;3579811;40;20068;-63
2022/01/20 05:06:22;;;;;;;19.13;3.13;;;;;;;4.65;80.14;102351.78;3579613;40;20048;-64
2022/01/20 05:08:49;;;;;;;13.65;2.42;;;;;;;4.66;79.84;102364.19;3576270;40;20141;-64
2022/01/20 05:11:16;;;;;;;15.25;2.88;;;;;;;4.67;80.40;102365.97;3579549;40;20045;-64
2022/01/20 05:13:41;;;;;;;10.52;2.55;;;;;;;4.68;80.36;102361.53;3577975;40;20048;-63
2022/01/20 05:16:08;;;;;;;16.42;2.97;;;;;;;4.71;80.08;102367.69;3576598;40;20064;-63
2022/01/20 05:18:34;;;;;;;14.30;3.00;;;;;;;4.71;80.20;102362.34;3579675;40;20707;-64
2022/01/20 05:21:00;;;;;;;17.35;3.35;;;;;;;4.57;80.07;102329.72;3580239;40;20088;-62
2022/01/20 05:23:26;;;;;;;16.48;2.88;;;;;;;4.62;79.91;102351.81;3578089;40;20056;-63
2022/01/20 05:25:52;;;;;;;17.20;3.35;;;;;;;4.80;79.92;102380.00;3577994;40;20053;-63
2022/01/20 05:28:17;;;;;;;19.98;2.90;;;;;;;4.83;80.09;102379.97;3578626;40;20056;-63
2022/01/20 05:30:43;;;;;;;15.68;3.22;;;;;;;4.82;79.66;102381.75;3579069;40;20060;-62
2022/01/20 05:33:10;;;;;;;20.02;3.10;;;;;;;4.81;80.00;102371.97;3579354;40;20446;-63
2022/01/20 05:35:36;;;;;;;19.75;3.00;;;;;;;4.88;80.01;102384.34;3579457;40;20060;-63
2022/01/20 05:38:02;;;;;;;18.55;3.10;;;;;;;4.78;80.09;102363.16;3576875;40;20092;-63
2022/01/20 05:40:28;;;;;;;15.60;2.95;;;;;;;4.78;79.66;102374.69;3565057;40;20061;-63
2022/01/20 05:42:54;;;;;;;15.00;2.20;;;;;;;4.31;79.81;102314.91;3580242;40;20064;-62
2022/01/20 05:45:22;;;;;;;16.70;2.72;;;;;;;4.92;79.71;102414.50;3579426;40;20044;-62
2022/01/20 05:47:49;;;;;;;13.10;2.33;;;;;;;4.85;80.16;102403.03;3582571;40;20044;-63
2022/01/20 05:50:20;;;;;;;11.65;2.13;;;;;;;4.84;80.11;102403.91;3581149;40;20299;-63
2022/01/20 05:52:47;;;;;;;12.38;2.20;;;;;;;4.80;79.79;102409.31;3580527;40;20100;-64
2022/01/20 05:55:20;;;;;;;10.10;1.63;;;;;;;4.77;79.00;102418.22;3578750;40;20105;-63
2022/01/20 05:57:46;;;;;;;9.68;1.75;;;;;;;4.75;78.57;102427.13;3577697;40;20065;-64
2022/01/20 06:00:24;;;;;;;11.77;1.92;;;;;;;4.74;79.00;102431.56;3575488;40;20041;-63
2022/01/20 06:05:35;;;;;;;12.07;2.10;;;;;;;4.73;78.90;102442.28;3579361;40;20400;-63
2022/01/20 06:08:02;;;;;;;11.18;1.92;;;;;;;4.68;79.30;102436.97;3577733;40;20067;-64
2022/01/20 06:10:28;;;;;;;12.13;1.95;;;;;;;4.70;79.13;102437.84;3571419;40;20044;-63
2022/01/20 06:12:54;;;;;;;11.73;2.10;;;;;;;4.69;78.94;102446.72;3575087;40;20300;-62
2022/01/20 06:15:20;;;;;;;12.38;1.73;;;;;;;4.71;78.96;102444.94;3565768;40;20100;-63
2022/01/20 06:17:45;;;;;;;16.85;3.08;;;;;;;4.70;79.44;102451.16;3577505;40;20055;-64
2022/01/20 06:20:12;;;;;;;13.55;2.33;;;;;;;4.71;78.91;102452.94;3578259;40;20121;-63
2022/01/20 06:22:39;;;;;;;14.90;2.65;;;;;;;4.70;78.26;102451.16;3578344;40;20047;-63
2022/01/20 06:25:06;;;;;;;14.02;2.70;;;;;;;4.70;77.98;102458.28;3569500;40;20052;-64
2022/01/20 06:27:33;;;;;;;12.02;2.65;;;;;;;4.69;78.13;102468.03;3579361;40;20052;-64
2022/01/20 06:29:58;;;;;;;18.77;2.72;;;;;;;4.69;77.81;102473.34;3579421;40;20318;-64
2022/01/20 06:32:25;;;;;;;14.50;2.53;;;;;;;4.71;77.71;102478.69;3578376;40;20049;-64
2022/01/20 06:34:51;;;;;;;23.90;3.10;;;;;;;4.69;77.54;102476.03;3580403;40;20083;-63
2022/01/20 06:37:16;;;;;;;15.82;2.78;;;;;;;4.65;77.57;102468.97;3576165;40;20044;-63
2022/01/20 06:39:42;;;;;;;19.40;2.97;;;;;;;4.71;77.57;102476.91;3579952;40;20303;-63
2022/01/20 06:42:08;;;;;;;17.10;3.28;;;;;;;4.68;76.87;102476.94;3579421;40;20064;-64
2022/01/20 06:44:33;;;;;;;16.48;2.97;;;;;;;4.69;77.10;102476.03;3579761;40;20060;-64
2022/01/20 06:46:59;;;;;;;19.50;2.72;;;;;;;4.68;76.93;102479.59;3575269;40;20045;-62
2022/01/20 06:49:24;;;;;;;15.25;2.70;;;;;;;4.69;77.37;102492.00;3579162;40;20299;-63
2022/01/20 06:51:50;;;;;;;12.57;2.50;;;;;;;4.67;76.77;102491.16;3579098;40;20083;-64
2022/01/20 06:54:16;;;;;;;16.25;2.70;;;;;;;4.63;77.52;102498.31;3577624;40;20133;-63
2022/01/20 06:56:42;;;;;;;15.32;2.67;;;;;;;4.64;77.30;102496.50;3575776;40;20276;-62
2022/01/20 06:59:15;;;;;;;17.20;3.28;;;;;;;4.61;77.33;102502.75;3574114;40;20071;-64
2022/01/20 07:01:43;;;;;;;20.25;2.90;;;;;;;4.60;77.21;102502.78;3575838;40;20048;-63
2022/01/20 07:04:10;;;;;;;18.48;3.05;;;;;;;4.53;76.97;102501.06;3576729;40;20659;-63
2022/01/20 07:06:37;;;;;;;17.23;2.88;;;;;;;4.57;76.96;102521.44;3579176;40;20059;-64
2022/01/20 07:09:03;;;;;;;20.33;3.13;;;;;;;4.54;76.60;102529.47;3568338;40;20067;-64
2022/01/20 07:11:31;;;;;;;19.42;2.40;;;;;;;4.50;76.68;102528.59;3579482;40;20045;-63
2022/01/20 07:13:57;;;;;;;20.65;3.38;;;;;;;4.46;76.33;102526.84;3576622;40;20113;-63
2022/01/20 07:16:22;;;;;;;22.20;3.55;;;;;;;4.45;76.18;102534.88;3578461;40;20388;-63
2022/01/20 07:18:50;;;;;;;19.83;3.00;;;;;;;4.40;76.42;102535.78;3578235;40;20060;-64
2022/01/20 07:21:16;;;;;;;21.98;3.45;;;;;;;4.43;76.07;102537.53;3577482;40;20036;-64
2022/01/20 07:23:42;;;;;;;21.38;3.13;;;;;;;4.42;76.29;102534.00;3580843;40;20056;-63
2022/01/20 07:26:07;;;;;;;19.30;2.67;;;;;;;4.40;75.69;102530.44;3576754;40;20049;-63
2022/01/20 07:28:33;;;;;;;17.90;2.75;;;;;;;4.37;75.98;102551.78;3578640;40;20072;-63
2022/01/20 07:30:58;;;;;;;20.40;3.97;;;;;;;4.36;75.62;102558.00;3576238;40;20052;-64
2022/01/20 07:33:24;;;;;;;13.68;3.03;;;;;;;4.39;75.76;102562.44;3577449;40;20457;-63
2022/01/20 07:35:50;;;;;;;28.45;3.47;;;;;;;4.38;75.20;102556.22;3575593;40;20052;-63
2022/01/20 07:38:16;;;;;;;17.85;3.25;;;;;;;4.37;75.70;102567.75;3574759;40;20068;-64
2022/01/20 07:40:42;;;;;;;21.02;3.75;;;;;;;4.38;75.63;102574.00;3576585;40;20056;-63
2022/01/20 07:43:08;;;;;;;21.02;3.70;;;;;;;4.40;75.21;102574.84;3580398;40;20097;-64
2022/01/20 07:45:34;;;;;;;20.58;3.58;;;;;;;4.40;75.40;102575.72;3578810;40;20114;-63
2022/01/20 07:48:00;;;;;;;18.17;3.17;;;;;;;4.22;75.17;102541.28;3578673;40;20211;-64
2022/01/20 07:50:26;;;;;;;16.20;3.13;;;;;;;4.30;75.27;102557.19;3578739;40;20382;-64
2022/01/20 07:52:52;;;;;;;23.05;3.45;;;;;;;4.40;74.92;102575.72;3577829;40;20146;-63
2022/01/20 07:55:17;;;;;;;22.85;3.38;;;;;;;4.40;75.12;102586.38;3577320;40;20391;-63
2022/01/20 07:57:43;;;;;;;22.88;4.25;;;;;;;4.40;75.33;102597.00;3578237;40;20088;-63
2022/01/20 08:00:10;;;;;;;18.17;3.85;;;;;;;4.43;75.04;102604.97;3573552;40;20060;-62
2022/01/20 08:02:35;;;;;;;19.20;4.80;;;;;;;4.45;74.88;102601.44;3579342;40;20053;-62
2022/01/20 08:05:02;;;;;;;23.20;5.38;;;;;;;4.40;75.45;102588.16;3577160;40;20060;-63
2022/01/20 08:07:27;;;;;;;19.55;5.30;;;;;;;4.49;75.36;102596.06;3579149;40;20048;-63
2022/01/20 08:09:59;;;;;;;26.38;4.85;;;;;;;4.52;75.13;102592.50;3578779;40;20049;-64
2022/01/20 08:12:28;;;;;;;18.35;3.33;;;;;;;4.55;74.99;102592.47;3579282;40;20055;-63
2022/01/20 08:14:56;;;;;;;23.52;3.25;;;;;;;4.56;75.80;102607.53;3577784;40;20154;-64
2022/01/20 08:17:22;;;;;;;22.02;3.97;;;;;;;4.55;75.77;102613.78;3578443;40;20053;-64
2022/01/20 08:19:49;;;;;;;18.20;4.47;;;;;;;4.54;76.09;102614.69;3577861;40;20051;-64
2022/01/20 08:22:16;;;;;;;18.67;4.43;;;;;;;4.55;75.73;102621.78;3576434;40;20482;-64
2022/01/20 08:24:42;;;;;;;22.25;5.10;;;;;;;4.57;75.80;102627.97;3579225;40;20409;-63
2022/01/20 08:27:09;;;;;;;33.22;7.32;;;;;;;4.59;75.68;102631.50;3578032;40;20044;-64
2022/01/20 08:29:36;;;;;;;32.33;6.97;;;;;;;4.58;75.98;102629.75;3579897;40;20044;-63
2022/01/20 08:32:03;;;;;;;23.13;5.45;;;;;;;4.55;75.71;102630.63;3573947;40;20052;-63
2022/01/20 08:34:29;;;;;;;22.33;5.18;;;;;;;4.58;75.20;102627.06;3577658;40;20056;-63
2022/01/20 08:36:55;;;;;;;24.08;4.30;;;;;;;4.58;75.73;102627.06;3581411;40;20070;-63
2022/01/20 08:39:38;;;;;;;20.90;4.22;;;;;;;4.58;75.69;102627.06;3581919;40;20051;-63
2022/01/20 08:42:05;;;;;;;23.87;4.27;;;;;;;4.59;75.14;102634.16;3582880;40;20056;-63
2022/01/20 08:44:31;;;;;;;21.13;3.03;;;;;;;4.58;74.35;102637.72;3580164;40;20274;-64
2022/01/20 08:46:58;;;;;;;16.55;3.08;;;;;;;4.57;73.25;102635.97;3578875;40;20061;-63
2022/01/20 08:49:25;;;;;;;15.32;2.70;;;;;;;4.60;73.41;102641.28;3579014;40;20076;-64
2022/01/20 08:51:53;;;;;;;11.75;2.65;;;;;;;4.61;72.81;102649.25;3576141;40;20060;-62
2022/01/20 08:54:20;;;;;;;14.23;2.70;;;;;;;4.58;72.15;102649.25;3578607;40;20106;-63
2022/01/20 08:56:46;;;;;;;12.18;2.83;;;;;;;4.58;72.12;102648.38;3578416;40;20072;-64
2022/01/20 08:59:12;;;;;;;16.25;2.53;;;;;;;4.62;71.42;102652.78;3581784;40;20353;-63
2022/01/20 09:01:41;;;;;;;14.93;3.03;;;;;;;4.66;71.69;102657.19;3579872;40;20334;-63
2022/01/20 09:04:08;;;;;;;10.98;2.38;;;;;;;4.71;71.51;102666.03;3578192;40;20071;-64
2022/01/20 09:06:34;;;;;;;13.65;2.38;;;;;;;4.76;72.13;102669.56;3611393;22;20367;-61
2022/01/20 09:09:00;;;;;;;11.95;2.67;;;;;;;4.76;71.31;102658.91;3569704;40;20126;-61
2022/01/20 09:11:35;;;;;;;12.80;2.00;;;;;;;4.81;71.10;102662.38;3567955;40;20057;-64
2022/01/20 09:16:45;;;;;;;11.98;2.72;;;;;;;4.81;70.66;102680.16;3579318;40;20085;-61
2022/01/20 09:19:11;;;;;;;10.88;2.30;;;;;;;4.83;70.91;102686.38;3579694;40;20072;-61
2022/01/20 09:21:39;;;;;;;10.30;2.50;;;;;;;4.87;70.05;102694.31;3580268;40;20149;-61
2022/01/20 09:24:06;;;;;;;11.10;2.25;;;;;;;4.93;70.70;102696.03;3577793;40;20076;-63
2022/01/20 09:26:32;;;;;;;10.73;2.70;;;;;;;4.94;70.41;102696.94;3575935;40;20489;-63
2022/01/20 09:28:58;;;;;;;15.68;2.53;;;;;;;4.85;70.55;102690.78;3582631;40;20060;-64
2022/01/20 09:31:25;;;;;;;11.68;2.78;;;;;;;4.92;69.98;102693.41;3577714;40;20059;-62
2022/01/20 09:33:53;;;;;;;16.20;2.63;;;;;;;4.86;70.57;102676.56;3581021;40;20044;-62
2022/01/20 09:36:22;;;;;;;14.98;3.58;;;;;;;4.91;71.10;102684.50;3578030;40;20084;-62
2022/01/20 09:38:49;;;;;;;14.27;4.18;;;;;;;4.84;70.34;102673.03;3578921;40;20052;-62
2022/01/20 09:41:15;;;;;;;16.05;3.80;;;;;;;4.89;70.08;102681.88;3576556;40;20064;-62
2022/01/20 09:43:40;;;;;;;16.23;5.25;;;;;;;4.98;71.02;102677.34;3580603;40;20363;-62
2022/01/20 09:46:06;;;;;;;21.83;5.78;;;;;;;5.16;71.17;102676.31;3579227;40;20088;-65
2022/01/20 09:48:32;;;;;;;19.88;5.65;;;;;;;5.31;71.52;102679.69;3581823;40;20067;-63
2022/01/20 09:51:00;;;;;;;17.60;3.53;;;;;;;5.44;69.64;102685.78;3581072;40;20179;-63
2022/01/20 09:53:29;;;;;;;21.95;4.65;;;;;;;5.47;70.64;102684.88;3581482;40;20307;-65
2022/01/20 09:55:57;;;;;;;9.10;3.05;;;;;;;5.50;69.39;102685.72;3578511;40;20335;-62
2022/01/20 09:58:23;;;;;;;17.67;3.50;;;;;;;5.53;69.86;102698.16;3580259;40;20057;-62
2022/01/20 10:00:51;;;;;;;15.82;3.85;;;;;;;5.57;70.05;102708.75;3580396;40;20056;-63
2022/01/20 10:03:20;;;;;;;14.05;3.10;;;;;;;5.55;68.60;102710.56;3582280;40;20048;-62
2022/01/20 10:05:51;;;;;;;15.50;3.10;;;;;;;5.61;68.19;102719.41;3581632;40;20056;-63
2022/01/20 10:08:27;;;;;;;13.63;3.10;;;;;;;5.65;68.21;102727.38;3579682;40;20106;-63
2022/01/20 10:10:57;;;;;;;14.73;2.42;;;;;;;5.81;68.67;102723.63;3578870;40;20058;-63
2022/01/20 10:13:29;;;;;;;14.27;3.00;;;;;;;6.13;67.92;102730.38;3580418;40;20086;-63
2022/01/20 10:16:06;;;;;;;12.23;2.47;;;;;;;6.42;66.21;102721.09;3579601;40;20071;-64
2022/01/20 10:18:44;;;;;;;13.20;3.13;;;;;;;6.69;64.64;102725.16;3582369;40;20100;-63
2022/01/20 10:21:09;;;;;;;9.75;2.20;;;;;;;6.85;63.88;102710.66;3575290;40;20053;-63
2022/01/20 10:23:40;;;;;;;9.85;2.30;;;;;;;6.61;62.35;102638.88;3577094;40;20391;-62
2022/01/20 10:26:13;;;;;;;14.05;2.42;;;;;;;7.31;61.91;102731.25;3577318;40;20392;-63
2022/01/20 10:28:53;;;;;;;14.73;2.67;;;;;;;7.53;60.71;102746.94;3578711;40;20056;-62
2022/01/20 10:31:49;;;;;;;12.68;2.60;;;;;;;7.65;59.78;102744.91;3582143;40;20273;-63
2022/01/20 10:34:30;;;;;;;13.00;2.20;;;;;;;7.81;58.90;102747.31;3578297;40;20171;-62
2022/01/20 10:37:02;;;;;;;13.70;2.50;;;;;;;8.02;58.42;102757.56;3569113;40;20053;-65
2022/01/20 10:39:40;;;;;;;14.73;2.80;;;;;;;8.20;58.72;102750.09;3577613;40;20049;-63
2022/01/20 10:42:25;;;;;;;11.30;2.80;;;;;;;8.34;57.33;102751.56;3577029;40;20048;-63
2022/01/20 10:44:57;;;;;;;12.13;2.50;;;;;;;8.62;55.95;102759.00;3567703;40;20064;-63
2022/01/20 10:47:33;;;;;;;15.05;3.08;;;;;;;8.62;54.06;102768.84;3582493;40;20059;-63
2022/01/20 10:50:15;;;;;;;17.27;3.17;;;;;;;8.56;54.51;102759.16;3579425;40;20056;-63
2022/01/20 10:52:45;;;;;;;11.25;2.75;;;;;;;8.36;54.19;102762.25;3576260;40;20142;-62
2022/01/20 10:55:34;;;;;;;12.07;2.53;;;;;;;8.05;54.11;102754.84;3576484;40;20134;-63
2022/01/20 10:58:15;;;;;;;11.20;2.40;;;;;;;7.80;55.15;102757.16;3575413;40;20364;-63
2022/01/20 11:00:45;;;;;;;14.82;2.58;;;;;;;7.58;54.79;102761.09;3580851;40;20067;-62
2022/01/20 11:03:11;;;;;;;14.25;3.15;;;;;;;7.08;54.76;102691.56;3575696;40;20081;-63
2022/01/20 11:05:40;;;;;;;15.65;3.03;;;;;;;7.31;55.85;102754.47;3578636;40;20059;-62
2022/01/20 11:08:07;;;;;;;13.77;2.65;;;;;;;7.20;56.54;102755.53;3579753;40;20327;-63
2022/01/20 11:10:33;;;;;;;13.02;2.53;;;;;;;7.03;56.26;102752.25;3579568;40;20053;-62
2022/01/20 11:12:59;;;;;;;13.65;2.42;;;;;;;7.03;57.51;102762.06;3580147;40;20056;-63
2022/01/20 11:15:28;;;;;;;12.05;2.75;;;;;;;6.97;57.56;102761.25;3580602;40;20100;-63
2022/01/20 11:17:57;;;;;;;16.83;2.75;;;;;;;6.83;58.06;102754.34;3579592;40;20068;-62
2022/01/20 11:20:27;;;;;;;15.70;2.95;;;;;;;6.83;58.50;102759.69;3577516;40;20249;-63
2022/01/20 11:23:07;;;;;;;16.90;2.70;;;;;;;6.67;58.27;102759.03;3579198;40;20111;-63
2022/01/20 11:25:36;;;;;;;13.85;2.30;;;;;;;6.72;57.99;102765.19;3579655;40;20077;-63
2022/01/20 11:28:31;;;;;;;13.73;2.85;;;;;;;6.85;57.80;102753.44;3575665;40;20108;-62
2022/01/20 11:31:15;;;;;;;15.15;2.78;;;;;;;7.44;56.65;102753.34;3572676;40;20086;-62
2022/01/20 11:33:45;;;;;;;11.18;2.22;;;;;;;7.84;55.60;102723.16;3578339;40;20045;-62
2022/01/20 11:36:29;;;;;;;12.75;2.50;;;;;;;8.30;54.35;102746.28;3579311;40;20132;-63
2022/01/20 11:39:05;;;;;;;;;;;;;;;8.11;53.02;102746.69;3572593;40;20344;-63
2022/01/20 11:41:46;;;;;;;14.55;2.70;;;;;;;7.82;53.84;102749.06;3581499;40;19936;-63
2022/01/20 11:44:17;;;;;;;11.73;2.70;;;;;;;7.51;53.85;102724.66;3578962;40;20053;-63
2022/01/20 11:46:46;;;;;;;11.05;2.67;;;;;;;7.42;54.75;102749.78;3580068;40;20306;-64
2022/01/20 11:49:16;;;;;;;16.08;2.72;;;;;;;7.31;54.75;102751.78;3578012;40;20064;-63
2022/01/20 11:51:56;;;;;;;12.93;2.80;;;;;;;7.11;54.85;102741.44;3578267;40;20112;-63
2022/01/20 11:54:33;;;;;;;19.80;2.80;;;;;;;7.06;55.05;102744.16;3576254;40;20156;-63
2022/01/20 11:57:17;;;;;;;13.73;2.50;;;;;;;6.97;56.22;102747.00;3580937;40;20145;-62
2022/01/20 11:59:48;;;;;;;17.90;2.90;;;;;;;6.83;56.45;102738.31;3582437;40;20048;-62
2022/01/20 12:02:38;;;;;;;13.27;2.50;;;;;;;6.70;57.46;102722.47;3574636;40;20289;-62
2022/01/20 12:05:29;;;;;;;19.08;2.83;;;;;;;6.76;57.29;102744.69;3579310;40;20081;-62
2022/01/20 12:08:10;;;;;;;14.43;3.05;;;;;;;6.78;58.86;102756.22;3576990;40;20399;-62
2022/01/20 12:10:39;;;;;;;16.38;2.60;;;;;;;6.74;57.16;102740.22;3580279;40;20045;-62
2022/01/20 12:13:17;;;;;;;9.43;2.28;;;;;;;6.73;57.90;102737.56;3580402;40;20056;-61
2022/01/20 12:15:56;;;;;;;11.63;2.58;;;;;;;6.80;58.32;102733.03;3581980;40;20301;-61
2022/01/20 12:18:22;;;;;;;10.95;2.40;;;;;;;7.28;57.11;102717.94;3577845;40;20049;-63
2022/01/20 12:20:47;;;;;;;11.43;2.47;;;;;;;7.87;56.18;102705.22;3576507;40;20137;-61
2022/01/20 12:23:14;;;;;;;9.82;2.35;;;;;;;8.60;55.00;102713.50;3577386;40;20063;-61
2022/01/20 12:25:39;;;;;;;10.70;2.53;;;;;;;8.74;53.78;102705.09;3580630;40;20040;-62
2022/01/20 12:28:15;;;;;;;14.35;2.97;;;;;;;8.42;53.61;102713.91;3580852;40;21628;-61
2022/01/20 12:30:47;;;;;;;11.48;2.60;;;;;;;8.14;55.31;102718.94;3582534;40;20472;-61